Roanoke, Virginia
Current Conditions -  °F | °C
As of 7:54 AM on Wednesday 26 Nov 2014 (Local Time) from KROA Reporting Station
Light Snow Light Snow  
Wind Chill: 30°   Ceiling: 2500
Heat Index: 34°   Visibility: 8mi
Dew Point: 32°   Wind: 5mph
Humidity: 92%   Direction: 340°NNW
Pressure: 30.05"   Gusts: NA
Location:  37.27°N, 79.94°W
Report Text: KROA 261254Z 34004KT 8SM -SNRA OVC025 01/00 A3005 RMK AO2 RAB01SNE15B51 SLP179 P0011 T00110000
Loading
Personal Weather Stations






























Interactive Weather Map New forecast layout! Learn more

10-Day Weather Forecast

Advertisements
Track Severe Weather on mobile